sensor_id;sensor_type;location;lat;lon;timestamp;P1;durP1;ratioP1;P2;durP2;ratioP2
5555;SDS011;2801;50.972;7.856;2023-12-20T00:01:07;12.63;;;4.57;;
5555;SDS011;2801;50.972;7.856;2023-12-20T00:03:35;16.50;;;4.97;;
5555;SDS011;2801;50.972;7.856;2023-12-20T00:06:08;10.33;;;4.27;;
5555;SDS011;2801;50.972;7.856;2023-12-20T00:08:36;16.17;;;4.70;;
5555;SDS011;2801;50.972;7.856;2023-12-20T00:11:04;10.67;;;4.13;;
5555;SDS011;2801;50.972;7.856;2023-12-20T00:13:31;9.47;;;3.47;;
5555;SDS011;2801;50.972;7.856;2023-12-20T00:15:59;17.53;;;3.97;;
5555;SDS011;2801;50.972;7.856;2023-12-20T00:18:26;10.80;;;3.87;;
5555;SDS011;2801;50.972;7.856;2023-12-20T00:20:53;9.57;;;3.70;;
5555;SDS011;2801;50.972;7.856;2023-12-20T00:23:20;12.37;;;3.70;;
5555;SDS011;2801;50.972;7.856;2023-12-20T00:25:49;11.50;;;4.00;;
5555;SDS011;2801;50.972;7.856;2023-12-20T00:28:16;8.10;;;3.50;;
5555;SDS011;2801;50.972;7.856;2023-12-20T00:30:43;12.33;;;4.00;;
5555;SDS011;2801;50.972;7.856;2023-12-20T00:33:11;8.33;;;3.10;;
5555;SDS011;2801;50.972;7.856;2023-12-20T00:35:38;10.03;;;3.33;;
5555;SDS011;2801;50.972;7.856;2023-12-20T00:38:05;12.97;;;3.67;;
5555;SDS011;2801;50.972;7.856;2023-12-20T00:40:35;9.07;;;3.17;;
5555;SDS011;2801;50.972;7.856;2023-12-20T00:43:02;14.07;;;3.07;;
5555;SDS011;2801;50.972;7.856;2023-12-20T00:45:30;7.80;;;3.00;;
5555;SDS011;2801;50.972;7.856;2023-12-20T00:47:57;7.40;;;2.47;;
5555;SDS011;2801;50.972;7.856;2023-12-20T00:50:25;6.30;;;2.63;;
5555;SDS011;2801;50.972;7.856;2023-12-20T00:52:55;7.87;;;3.00;;
5555;SDS011;2801;50.972;7.856;2023-12-20T00:55:23;4.37;;;2.00;;
5555;SDS011;2801;50.972;7.856;2023-12-20T00:57:50;5.00;;;2.10;;
5555;SDS011;2801;50.972;7.856;2023-12-20T01:00:17;6.37;;;2.50;;
5555;SDS011;2801;50.972;7.856;2023-12-20T01:02:44;5.30;;;2.30;;
5555;SDS011;2801;50.972;7.856;2023-12-20T01:05:13;5.87;;;2.17;;
5555;SDS011;2801;50.972;7.856;2023-12-20T01:07:40;8.07;;;2.07;;
5555;SDS011;2801;50.972;7.856;2023-12-20T01:10:08;6.37;;;2.53;;
5555;SDS011;2801;50.972;7.856;2023-12-20T01:12:35;4.53;;;2.10;;
5555;SDS011;2801;50.972;7.856;2023-12-20T01:15:05;5.43;;;2.30;;
5555;SDS011;2801;50.972;7.856;2023-12-20T01:17:32;9.77;;;2.80;;
5555;SDS011;2801;50.972;7.856;2023-12-20T01:19:59;5.27;;;2.07;;
5555;SDS011;2801;50.972;7.856;2023-12-20T01:22:27;5.90;;;2.30;;
5555;SDS011;2801;50.972;7.856;2023-12-20T01:24:54;3.63;;;2.33;;
5555;SDS011;2801;50.972;7.856;2023-12-20T01:27:21;5.40;;;2.53;;
5555;SDS011;2801;50.972;7.856;2023-12-20T01:29:49;4.97;;;2.33;;
5555;SDS011;2801;50.972;7.856;2023-12-20T01:32:16;7.20;;;2.60;;
5555;SDS011;2801;50.972;7.856;2023-12-20T01:34:44;6.10;;;2.50;;
5555;SDS011;2801;50.972;7.856;2023-12-20T01:37:11;4.23;;;1.50;;
5555;SDS011;2801;50.972;7.856;2023-12-20T01:39:39;4.93;;;1.60;;
5555;SDS011;2801;50.972;7.856;2023-12-20T01:42:06;3.10;;;1.50;;
5555;SDS011;2801;50.972;7.856;2023-12-20T01:44:34;2.30;;;1.63;;
5555;SDS011;2801;50.972;7.856;2023-12-20T01:47:01;2.13;;;1.60;;
5555;SDS011;2801;50.972;7.856;2023-12-20T01:49:28;6.53;;;1.90;;
5555;SDS011;2801;50.972;7.856;2023-12-20T01:51:55;11.97;;;5.23;;
5555;SDS011;2801;50.972;7.856;2023-12-20T01:54:23;7.57;;;2.70;;
5555;SDS011;2801;50.972;7.856;2023-12-20T01:56:51;8.87;;;2.97;;
5555;SDS011;2801;50.972;7.856;2023-12-20T01:59:18;10.67;;;3.30;;
5555;SDS011;2801;50.972;7.856;2023-12-20T02:01:47;8.80;;;3.77;;
5555;SDS011;2801;50.972;7.856;2023-12-20T02:04:15;11.30;;;3.97;;
5555;SDS011;2801;50.972;7.856;2023-12-20T02:06:43;10.50;;;3.60;;
5555;SDS011;2801;50.972;7.856;2023-12-20T02:09:12;15.80;;;5.80;;
5555;SDS011;2801;50.972;7.856;2023-12-20T02:11:41;9.83;;;3.70;;
5555;SDS011;2801;50.972;7.856;2023-12-20T02:14:08;15.43;;;5.20;;
5555;SDS011;2801;50.972;7.856;2023-12-20T02:16:35;8.57;;;3.83;;
5555;SDS011;2801;50.972;7.856;2023-12-20T02:19:03;10.60;;;4.33;;
5555;SDS011;2801;50.972;7.856;2023-12-20T02:21:41;10.47;;;3.87;;
5555;SDS011;2801;50.972;7.856;2023-12-20T02:24:08;11.30;;;4.50;;
5555;SDS011;2801;50.972;7.856;2023-12-20T02:26:35;10.00;;;4.30;;
5555;SDS011;2801;50.972;7.856;2023-12-20T02:29:02;15.60;;;4.57;;
5555;SDS011;2801;50.972;7.856;2023-12-20T02:31:29;10.30;;;4.60;;
5555;SDS011;2801;50.972;7.856;2023-12-20T02:33:57;12.23;;;4.80;;
5555;SDS011;2801;50.972;7.856;2023-12-20T02:36:24;13.03;;;4.60;;
5555;SDS011;2801;50.972;7.856;2023-12-20T02:38:51;13.73;;;5.13;;
5555;SDS011;2801;50.972;7.856;2023-12-20T02:41:19;14.57;;;4.63;;
5555;SDS011;2801;50.972;7.856;2023-12-20T02:43:46;16.13;;;5.07;;
5555;SDS011;2801;50.972;7.856;2023-12-20T02:46:14;12.63;;;5.07;;
5555;SDS011;2801;50.972;7.856;2023-12-20T02:48:44;19.27;;;5.77;;
5555;SDS011;2801;50.972;7.856;2023-12-20T02:51:11;14.37;;;5.60;;
5555;SDS011;2801;50.972;7.856;2023-12-20T02:53:38;14.50;;;4.97;;
5555;SDS011;2801;50.972;7.856;2023-12-20T02:56:05;12.30;;;5.33;;
5555;SDS011;2801;50.972;7.856;2023-12-20T02:58:32;15.97;;;5.00;;
5555;SDS011;2801;50.972;7.856;2023-12-20T03:01:00;12.80;;;5.20;;
5555;SDS011;2801;50.972;7.856;2023-12-20T03:03:27;16.13;;;5.17;;
5555;SDS011;2801;50.972;7.856;2023-12-20T03:05:54;16.20;;;5.30;;
5555;SDS011;2801;50.972;7.856;2023-12-20T03:08:21;10.40;;;4.73;;
5555;SDS011;2801;50.972;7.856;2023-12-20T03:10:48;9.70;;;5.07;;
5555;SDS011;2801;50.972;7.856;2023-12-20T03:13:16;14.03;;;5.67;;
5555;SDS011;2801;50.972;7.856;2023-12-20T03:15:44;23.57;;;6.03;;
5555;SDS011;2801;50.972;7.856;2023-12-20T03:18:12;16.30;;;6.20;;
5555;SDS011;2801;50.972;7.856;2023-12-20T03:20:39;12.70;;;6.10;;
5555;SDS011;2801;50.972;7.856;2023-12-20T03:23:07;13.83;;;6.00;;
5555;SDS011;2801;50.972;7.856;2023-12-20T03:25:34;19.37;;;6.50;;
5555;SDS011;2801;50.972;7.856;2023-12-20T03:28:01;13.57;;;6.40;;
5555;SDS011;2801;50.972;7.856;2023-12-20T03:30:29;14.97;;;6.30;;
5555;SDS011;2801;50.972;7.856;2023-12-20T03:32:56;17.27;;;6.50;;
5555;SDS011;2801;50.972;7.856;2023-12-20T03:35:23;15.07;;;6.40;;
5555;SDS011;2801;50.972;7.856;2023-12-20T03:37:50;15.57;;;6.60;;
5555;SDS011;2801;50.972;7.856;2023-12-20T03:40:18;16.53;;;7.40;;
5555;SDS011;2801;50.972;7.856;2023-12-20T03:42:45;15.30;;;6.40;;
5555;SDS011;2801;50.972;7.856;2023-12-20T03:45:12;14.63;;;6.30;;
5555;SDS011;2801;50.972;7.856;2023-12-20T03:47:39;16.40;;;5.57;;
5555;SDS011;2801;50.972;7.856;2023-12-20T03:50:06;14.03;;;5.43;;
5555;SDS011;2801;50.972;7.856;2023-12-20T03:52:33;14.23;;;4.83;;
5555;SDS011;2801;50.972;7.856;2023-12-20T03:55:00;11.03;;;4.60;;
5555;SDS011;2801;50.972;7.856;2023-12-20T03:57:27;14.80;;;5.00;;
5555;SDS011;2801;50.972;7.856;2023-12-20T03:59:55;13.60;;;4.60;;
5555;SDS011;2801;50.972;7.856;2023-12-20T04:02:22;9.13;;;4.57;;
5555;SDS011;2801;50.972;7.856;2023-12-20T04:04:49;14.67;;;4.37;;
5555;SDS011;2801;50.972;7.856;2023-12-20T04:07:17;14.20;;;5.27;;
5555;SDS011;2801;50.972;7.856;2023-12-20T04:09:44;17.67;;;5.30;;
5555;SDS011;2801;50.972;7.856;2023-12-20T04:12:12;11.50;;;5.60;;
5555;SDS011;2801;50.972;7.856;2023-12-20T04:14:38;20.47;;;6.03;;
5555;SDS011;2801;50.972;7.856;2023-12-20T04:17:06;12.30;;;6.37;;
5555;SDS011;2801;50.972;7.856;2023-12-20T04:19:33;20.53;;;6.27;;
5555;SDS011;2801;50.972;7.856;2023-12-20T04:22:01;17.13;;;5.03;;
5555;SDS011;2801;50.972;7.856;2023-12-20T04:24:28;16.87;;;5.60;;
5555;SDS011;2801;50.972;7.856;2023-12-20T04:26:55;20.83;;;6.33;;
5555;SDS011;2801;50.972;7.856;2023-12-20T04:29:22;14.83;;;6.30;;
5555;SDS011;2801;50.972;7.856;2023-12-20T04:31:49;17.63;;;7.17;;
5555;SDS011;2801;50.972;7.856;2023-12-20T04:34:18;23.30;;;7.17;;
5555;SDS011;2801;50.972;7.856;2023-12-20T04:36:45;20.13;;;7.53;;
5555;SDS011;2801;50.972;7.856;2023-12-20T04:39:13;19.40;;;7.77;;
5555;SDS011;2801;50.972;7.856;2023-12-20T04:41:41;19.90;;;6.67;;
5555;SDS011;2801;50.972;7.856;2023-12-20T04:44:08;17.70;;;7.57;;
5555;SDS011;2801;50.972;7.856;2023-12-20T04:46:35;20.10;;;7.63;;
5555;SDS011;2801;50.972;7.856;2023-12-20T04:49:03;27.77;;;7.93;;
5555;SDS011;2801;50.972;7.856;2023-12-20T04:51:32;16.97;;;7.13;;
5555;SDS011;2801;50.972;7.856;2023-12-20T04:54:01;21.13;;;6.37;;
5555;SDS011;2801;50.972;7.856;2023-12-20T04:56:29;20.13;;;6.23;;
5555;SDS011;2801;50.972;7.856;2023-12-20T04:58:56;15.83;;;6.27;;
5555;SDS011;2801;50.972;7.856;2023-12-20T05:01:23;21.50;;;6.23;;
5555;SDS011;2801;50.972;7.856;2023-12-20T05:03:52;17.77;;;6.30;;
5555;SDS011;2801;50.972;7.856;2023-12-20T05:06:19;19.80;;;5.83;;
5555;SDS011;2801;50.972;7.856;2023-12-20T05:08:46;23.03;;;6.50;;
5555;SDS011;2801;50.972;7.856;2023-12-20T05:11:13;17.90;;;6.63;;
5555;SDS011;2801;50.972;7.856;2023-12-20T05:13:41;15.73;;;5.80;;
5555;SDS011;2801;50.972;7.856;2023-12-20T05:16:15;17.47;;;6.20;;
5555;SDS011;2801;50.972;7.856;2023-12-20T05:18:45;18.17;;;5.80;;
5555;SDS011;2801;50.972;7.856;2023-12-20T05:21:14;18.67;;;5.50;;
5555;SDS011;2801;50.972;7.856;2023-12-20T05:23:42;19.63;;;6.13;;
5555;SDS011;2801;50.972;7.856;2023-12-20T05:26:09;16.30;;;5.80;;
5555;SDS011;2801;50.972;7.856;2023-12-20T05:28:37;14.40;;;5.67;;
5555;SDS011;2801;50.972;7.856;2023-12-20T05:31:04;16.67;;;5.53;;
5555;SDS011;2801;50.972;7.856;2023-12-20T05:33:31;15.73;;;6.33;;
5555;SDS011;2801;50.972;7.856;2023-12-20T05:35:59;16.40;;;5.50;;
5555;SDS011;2801;50.972;7.856;2023-12-20T05:38:26;15.63;;;5.57;;
5555;SDS011;2801;50.972;7.856;2023-12-20T05:40:53;17.40;;;5.97;;
5555;SDS011;2801;50.972;7.856;2023-12-20T05:43:21;14.07;;;5.57;;
5555;SDS011;2801;50.972;7.856;2023-12-20T05:45:48;13.77;;;5.17;;
5555;SDS011;2801;50.972;7.856;2023-12-20T05:48:15;15.30;;;5.93;;
5555;SDS011;2801;50.972;7.856;2023-12-20T05:50:43;16.57;;;6.57;;
5555;SDS011;2801;50.972;7.856;2023-12-20T05:53:10;14.90;;;5.60;;
5555;SDS011;2801;50.972;7.856;2023-12-20T05:55:37;14.77;;;6.30;;
5555;SDS011;2801;50.972;7.856;2023-12-20T05:58:04;11.97;;;6.00;;
5555;SDS011;2801;50.972;7.856;2023-12-20T06:00:31;21.17;;;5.57;;
5555;SDS011;2801;50.972;7.856;2023-12-20T06:02:59;15.17;;;5.17;;
5555;SDS011;2801;50.972;7.856;2023-12-20T06:05:26;14.13;;;5.50;;
5555;SDS011;2801;50.972;7.856;2023-12-20T06:07:53;18.37;;;5.53;;
5555;SDS011;2801;50.972;7.856;2023-12-20T06:10:20;16.13;;;5.90;;
5555;SDS011;2801;50.972;7.856;2023-12-20T06:12:48;18.17;;;5.17;;
5555;SDS011;2801;50.972;7.856;2023-12-20T06:15:17;14.50;;;5.50;;
5555;SDS011;2801;50.972;7.856;2023-12-20T06:17:45;15.80;;;6.07;;
5555;SDS011;2801;50.972;7.856;2023-12-20T06:20:13;19.43;;;5.30;;
5555;SDS011;2801;50.972;7.856;2023-12-20T06:22:42;21.03;;;5.97;;
5555;SDS011;2801;50.972;7.856;2023-12-20T06:25:09;18.70;;;6.23;;
5555;SDS011;2801;50.972;7.856;2023-12-20T06:27:36;12.60;;;5.03;;
5555;SDS011;2801;50.972;7.856;2023-12-20T06:30:07;14.60;;;6.03;;
5555;SDS011;2801;50.972;7.856;2023-12-20T06:32:35;11.03;;;5.57;;
5555;SDS011;2801;50.972;7.856;2023-12-20T06:35:04;12.63;;;5.90;;
5555;SDS011;2801;50.972;7.856;2023-12-20T06:37:32;16.33;;;5.40;;
5555;SDS011;2801;50.972;7.856;2023-12-20T06:39:59;15.23;;;6.40;;
5555;SDS011;2801;50.972;7.856;2023-12-20T06:42:27;18.17;;;6.30;;
5555;SDS011;2801;50.972;7.856;2023-12-20T06:44:58;16.40;;;6.33;;
5555;SDS011;2801;50.972;7.856;2023-12-20T06:47:26;15.83;;;5.67;;
5555;SDS011;2801;50.972;7.856;2023-12-20T06:49:53;18.33;;;5.90;;
5555;SDS011;2801;50.972;7.856;2023-12-20T06:52:20;16.03;;;5.30;;
5555;SDS011;2801;50.972;7.856;2023-12-20T06:54:48;10.57;;;4.90;;
5555;SDS011;2801;50.972;7.856;2023-12-20T06:57:15;20.00;;;5.80;;
5555;SDS011;2801;50.972;7.856;2023-12-20T06:59:42;16.60;;;6.23;;
5555;SDS011;2801;50.972;7.856;2023-12-20T07:02:09;16.30;;;5.60;;
5555;SDS011;2801;50.972;7.856;2023-12-20T07:04:40;14.03;;;6.07;;
5555;SDS011;2801;50.972;7.856;2023-12-20T07:07:08;16.50;;;6.17;;
5555;SDS011;2801;50.972;7.856;2023-12-20T07:09:36;20.17;;;5.77;;
5555;SDS011;2801;50.972;7.856;2023-12-20T07:12:03;11.93;;;5.30;;
5555;SDS011;2801;50.972;7.856;2023-12-20T07:14:33;17.10;;;5.87;;
5555;SDS011;2801;50.972;7.856;2023-12-20T07:17:00;19.47;;;6.27;;
5555;SDS011;2801;50.972;7.856;2023-12-20T07:19:27;17.20;;;6.30;;
5555;SDS011;2801;50.972;7.856;2023-12-20T07:21:55;19.50;;;6.23;;
5555;SDS011;2801;50.972;7.856;2023-12-20T07:24:22;16.07;;;6.30;;
5555;SDS011;2801;50.972;7.856;2023-12-20T07:26:49;21.67;;;6.50;;
5555;SDS011;2801;50.972;7.856;2023-12-20T07:29:17;13.67;;;5.77;;
5555;SDS011;2801;50.972;7.856;2023-12-20T07:31:44;17.77;;;6.33;;
5555;SDS011;2801;50.972;7.856;2023-12-20T07:34:11;15.43;;;6.07;;
5555;SDS011;2801;50.972;7.856;2023-12-20T07:36:38;14.07;;;6.57;;
5555;SDS011;2801;50.972;7.856;2023-12-20T07:39:05;18.53;;;6.10;;
5555;SDS011;2801;50.972;7.856;2023-12-20T07:41:35;16.60;;;6.50;;
5555;SDS011;2801;50.972;7.856;2023-12-20T07:44:04;18.10;;;5.30;;
5555;SDS011;2801;50.972;7.856;2023-12-20T07:46:33;23.83;;;7.33;;
5555;SDS011;2801;50.972;7.856;2023-12-20T07:49:00;17.57;;;6.17;;
5555;SDS011;2801;50.972;7.856;2023-12-20T07:51:27;19.37;;;6.87;;
5555;SDS011;2801;50.972;7.856;2023-12-20T07:53:54;17.93;;;6.63;;
5555;SDS011;2801;50.972;7.856;2023-12-20T07:56:21;22.03;;;6.77;;
5555;SDS011;2801;50.972;7.856;2023-12-20T07:58:49;20.43;;;7.03;;
5555;SDS011;2801;50.972;7.856;2023-12-20T08:01:19;16.27;;;5.90;;
5555;SDS011;2801;50.972;7.856;2023-12-20T08:03:49;21.97;;;7.20;;
5555;SDS011;2801;50.972;7.856;2023-12-20T08:06:17;22.03;;;6.63;;
5555;SDS011;2801;50.972;7.856;2023-12-20T08:08:44;14.60;;;6.43;;
5555;SDS011;2801;50.972;7.856;2023-12-20T08:11:21;14.47;;;6.50;;
5555;SDS011;2801;50.972;7.856;2023-12-20T08:13:49;21.20;;;7.03;;
5555;SDS011;2801;50.972;7.856;2023-12-20T08:16:17;15.87;;;6.27;;
5555;SDS011;2801;50.972;7.856;2023-12-20T08:18:45;15.70;;;5.47;;
5555;SDS011;2801;50.972;7.856;2023-12-20T08:21:13;18.90;;;6.10;;
5555;SDS011;2801;50.972;7.856;2023-12-20T08:23:40;17.67;;;5.87;;
5555;SDS011;2801;50.972;7.856;2023-12-20T08:26:07;14.63;;;5.70;;
5555;SDS011;2801;50.972;7.856;2023-12-20T08:28:36;16.50;;;5.70;;
5555;SDS011;2801;50.972;7.856;2023-12-20T08:31:03;16.93;;;5.40;;
5555;SDS011;2801;50.972;7.856;2023-12-20T08:33:31;15.20;;;4.60;;
5555;SDS011;2801;50.972;7.856;2023-12-20T08:35:59;14.47;;;4.63;;
5555;SDS011;2801;50.972;7.856;2023-12-20T08:38:26;13.97;;;5.40;;
5555;SDS011;2801;50.972;7.856;2023-12-20T08:40:53;15.83;;;5.47;;
5555;SDS011;2801;50.972;7.856;2023-12-20T08:43:20;13.50;;;4.77;;
5555;SDS011;2801;50.972;7.856;2023-12-20T08:45:47;13.43;;;3.70;;
5555;SDS011;2801;50.972;7.856;2023-12-20T08:48:14;16.37;;;4.63;;
5555;SDS011;2801;50.972;7.856;2023-12-20T08:50:42;19.63;;;4.40;;
5555;SDS011;2801;50.972;7.856;2023-12-20T08:53:10;12.43;;;5.30;;
5555;SDS011;2801;50.972;7.856;2023-12-20T08:55:37;13.23;;;5.33;;
5555;SDS011;2801;50.972;7.856;2023-12-20T08:58:04;15.77;;;5.73;;
5555;SDS011;2801;50.972;7.856;2023-12-20T09:00:34;12.80;;;5.33;;
5555;SDS011;2801;50.972;7.856;2023-12-20T09:03:02;16.97;;;5.53;;
5555;SDS011;2801;50.972;7.856;2023-12-20T09:05:29;16.50;;;5.87;;
5555;SDS011;2801;50.972;7.856;2023-12-20T09:07:57;13.57;;;5.87;;
5555;SDS011;2801;50.972;7.856;2023-12-20T09:10:24;16.80;;;5.67;;
5555;SDS011;2801;50.972;7.856;2023-12-20T09:12:52;15.50;;;4.93;;
5555;SDS011;2801;50.972;7.856;2023-12-20T09:15:24;20.47;;;5.87;;
5555;SDS011;2801;50.972;7.856;2023-12-20T09:17:53;22.40;;;5.20;;
5555;SDS011;2801;50.972;7.856;2023-12-20T09:20:22;12.33;;;5.57;;
5555;SDS011;2801;50.972;7.856;2023-12-20T09:22:50;15.27;;;5.53;;
5555;SDS011;2801;50.972;7.856;2023-12-20T09:25:17;15.13;;;5.37;;
5555;SDS011;2801;50.972;7.856;2023-12-20T09:27:44;17.17;;;5.50;;
5555;SDS011;2801;50.972;7.856;2023-12-20T09:30:12;19.07;;;5.80;;
5555;SDS011;2801;50.972;7.856;2023-12-20T09:32:50;17.10;;;6.30;;
5555;SDS011;2801;50.972;7.856;2023-12-20T09:35:18;11.13;;;4.13;;
5555;SDS011;2801;50.972;7.856;2023-12-20T09:37:47;17.43;;;6.20;;
5555;SDS011;2801;50.972;7.856;2023-12-20T09:40:19;23.03;;;6.77;;
5555;SDS011;2801;50.972;7.856;2023-12-20T09:45:25;24.40;;;8.13;;
5555;SDS011;2801;50.972;7.856;2023-12-20T09:47:54;20.70;;;7.40;;
5555;SDS011;2801;50.972;7.856;2023-12-20T09:50:21;18.07;;;6.63;;
5555;SDS011;2801;50.972;7.856;2023-12-20T09:52:49;17.43;;;6.53;;
5555;SDS011;2801;50.972;7.856;2023-12-20T09:55:19;20.87;;;6.63;;
5555;SDS011;2801;50.972;7.856;2023-12-20T09:57:48;23.83;;;6.90;;
5555;SDS011;2801;50.972;7.856;2023-12-20T10:00:16;16.70;;;6.50;;
5555;SDS011;2801;50.972;7.856;2023-12-20T10:03:06;17.27;;;6.87;;
5555;SDS011;2801;50.972;7.856;2023-12-20T10:05:33;16.97;;;6.70;;
5555;SDS011;2801;50.972;7.856;2023-12-20T10:08:01;14.50;;;6.43;;
5555;SDS011;2801;50.972;7.856;2023-12-20T10:10:29;17.40;;;6.73;;
5555;SDS011;2801;50.972;7.856;2023-12-20T10:13:11;16.63;;;6.67;;
5555;SDS011;2801;50.972;7.856;2023-12-20T10:15:40;17.03;;;6.50;;
5555;SDS011;2801;50.972;7.856;2023-12-20T10:18:08;26.17;;;7.00;;
5555;SDS011;2801;50.972;7.856;2023-12-20T10:20:39;15.67;;;5.57;;
5555;SDS011;2801;50.972;7.856;2023-12-20T10:23:08;21.17;;;6.80;;
5555;SDS011;2801;50.972;7.856;2023-12-20T10:25:36;13.17;;;5.27;;
5555;SDS011;2801;50.972;7.856;2023-12-20T10:30:37;18.77;;;7.03;;
5555;SDS011;2801;50.972;7.856;2023-12-20T10:33:06;14.50;;;5.53;;
5555;SDS011;2801;50.972;7.856;2023-12-20T10:35:35;11.93;;;5.40;;
5555;SDS011;2801;50.972;7.856;2023-12-20T10:38:05;15.13;;;5.83;;
5555;SDS011;2801;50.972;7.856;2023-12-20T10:40:36;11.73;;;5.17;;
5555;SDS011;2801;50.972;7.856;2023-12-20T10:43:04;14.87;;;5.67;;
5555;SDS011;2801;50.972;7.856;2023-12-20T10:45:32;16.03;;;5.63;;
5555;SDS011;2801;50.972;7.856;2023-12-20T10:48:01;13.17;;;5.17;;
5555;SDS011;2801;50.972;7.856;2023-12-20T10:50:30;11.13;;;4.77;;
5555;SDS011;2801;50.972;7.856;2023-12-20T10:52:58;16.70;;;5.57;;
5555;SDS011;2801;50.972;7.856;2023-12-20T10:55:26;14.83;;;6.20;;
5555;SDS011;2801;50.972;7.856;2023-12-20T10:58:00;12.23;;;5.10;;
5555;SDS011;2801;50.972;7.856;2023-12-20T11:00:32;13.83;;;4.70;;
5555;SDS011;2801;50.972;7.856;2023-12-20T11:03:05;16.70;;;6.63;;
5555;SDS011;2801;50.972;7.856;2023-12-20T11:08:20;13.90;;;5.37;;
5555;SDS011;2801;50.972;7.856;2023-12-20T11:13:34;18.10;;;6.00;;
5555;SDS011;2801;50.972;7.856;2023-12-20T11:16:24;19.30;;;5.37;;
5555;SDS011;2801;50.972;7.856;2023-12-20T11:18:55;22.17;;;5.83;;
5555;SDS011;2801;50.972;7.856;2023-12-20T11:21:22;13.80;;;5.33;;
5555;SDS011;2801;50.972;7.856;2023-12-20T11:23:49;14.37;;;5.87;;
5555;SDS011;2801;50.972;7.856;2023-12-20T11:26:22;14.60;;;5.63;;
5555;SDS011;2801;50.972;7.856;2023-12-20T11:28:53;15.13;;;5.30;;
5555;SDS011;2801;50.972;7.856;2023-12-20T11:31:41;11.13;;;5.37;;
5555;SDS011;2801;50.972;7.856;2023-12-20T11:34:14;16.17;;;5.63;;
5555;SDS011;2801;50.972;7.856;2023-12-20T11:36:43;18.50;;;5.70;;
5555;SDS011;2801;50.972;7.856;2023-12-20T11:39:11;18.33;;;5.93;;
5555;SDS011;2801;50.972;7.856;2023-12-20T11:41:48;50.83;;;11.70;;
5555;SDS011;2801;50.972;7.856;2023-12-20T11:44:17;171.60;;;23.47;;
5555;SDS011;2801;50.972;7.856;2023-12-20T11:46:44;26.07;;;7.63;;
5555;SDS011;2801;50.972;7.856;2023-12-20T11:49:11;18.70;;;6.30;;
5555;SDS011;2801;50.972;7.856;2023-12-20T11:51:41;13.73;;;5.87;;
5555;SDS011;2801;50.972;7.856;2023-12-20T11:54:10;18.43;;;6.80;;
5555;SDS011;2801;50.972;7.856;2023-12-20T11:56:37;20.57;;;6.90;;
5555;SDS011;2801;50.972;7.856;2023-12-20T11:59:04;20.83;;;6.17;;
5555;SDS011;2801;50.972;7.856;2023-12-20T12:01:49;16.60;;;6.10;;
5555;SDS011;2801;50.972;7.856;2023-12-20T12:04:18;21.07;;;6.77;;
5555;SDS011;2801;50.972;7.856;2023-12-20T12:06:46;15.97;;;6.23;;
5555;SDS011;2801;50.972;7.856;2023-12-20T12:09:13;14.07;;;6.37;;
5555;SDS011;2801;50.972;7.856;2023-12-20T12:11:42;26.70;;;6.63;;
5555;SDS011;2801;50.972;7.856;2023-12-20T12:14:09;16.00;;;5.30;;
5555;SDS011;2801;50.972;7.856;2023-12-20T12:16:37;17.47;;;6.27;;
5555;SDS011;2801;50.972;7.856;2023-12-20T12:19:04;18.90;;;5.80;;
5555;SDS011;2801;50.972;7.856;2023-12-20T12:21:31;18.90;;;6.33;;
5555;SDS011;2801;50.972;7.856;2023-12-20T12:24:09;11.70;;;5.50;;
5555;SDS011;2801;50.972;7.856;2023-12-20T12:26:36;12.87;;;5.40;;
5555;SDS011;2801;50.972;7.856;2023-12-20T12:29:07;13.80;;;5.00;;
5555;SDS011;2801;50.972;7.856;2023-12-20T12:31:34;15.90;;;6.07;;
5555;SDS011;2801;50.972;7.856;2023-12-20T12:34:03;14.40;;;5.40;;
5555;SDS011;2801;50.972;7.856;2023-12-20T12:36:30;19.70;;;5.23;;
5555;SDS011;2801;50.972;7.856;2023-12-20T12:38:58;17.90;;;5.80;;
5555;SDS011;2801;50.972;7.856;2023-12-20T12:41:31;19.97;;;5.77;;
5555;SDS011;2801;50.972;7.856;2023-12-20T12:43:59;15.07;;;5.10;;
5555;SDS011;2801;50.972;7.856;2023-12-20T12:46:39;16.97;;;5.87;;
5555;SDS011;2801;50.972;7.856;2023-12-20T12:49:07;12.83;;;5.10;;
5555;SDS011;2801;50.972;7.856;2023-12-20T12:51:34;18.33;;;6.50;;
5555;SDS011;2801;50.972;7.856;2023-12-20T12:54:01;23.97;;;5.73;;
5555;SDS011;2801;50.972;7.856;2023-12-20T12:56:30;19.87;;;6.27;;
5555;SDS011;2801;50.972;7.856;2023-12-20T12:58:58;15.63;;;6.00;;
5555;SDS011;2801;50.972;7.856;2023-12-20T13:01:25;17.47;;;6.03;;
5555;SDS011;2801;50.972;7.856;2023-12-20T13:03:52;89.17;;;12.93;;
5555;SDS011;2801;50.972;7.856;2023-12-20T13:06:19;18.53;;;6.30;;
5555;SDS011;2801;50.972;7.856;2023-12-20T13:08:47;27.13;;;9.43;;
5555;SDS011;2801;50.972;7.856;2023-12-20T13:11:14;19.93;;;6.03;;
5555;SDS011;2801;50.972;7.856;2023-12-20T13:13:41;14.87;;;5.43;;
5555;SDS011;2801;50.972;7.856;2023-12-20T13:16:08;21.00;;;6.30;;
5555;SDS011;2801;50.972;7.856;2023-12-20T13:18:37;14.77;;;5.30;;
5555;SDS011;2801;50.972;7.856;2023-12-20T13:21:06;16.53;;;5.30;;
5555;SDS011;2801;50.972;7.856;2023-12-20T13:23:33;15.10;;;5.47;;
5555;SDS011;2801;50.972;7.856;2023-12-20T13:26:05;15.67;;;6.10;;
5555;SDS011;2801;50.972;7.856;2023-12-20T13:28:34;16.43;;;6.50;;
5555;SDS011;2801;50.972;7.856;2023-12-20T13:31:01;14.70;;;6.60;;
5555;SDS011;2801;50.972;7.856;2023-12-20T13:33:30;18.37;;;6.27;;
5555;SDS011;2801;50.972;7.856;2023-12-20T13:35:57;19.30;;;5.97;;
5555;SDS011;2801;50.972;7.856;2023-12-20T13:38:24;14.63;;;5.43;;
5555;SDS011;2801;50.972;7.856;2023-12-20T13:40:51;16.13;;;5.83;;
5555;SDS011;2801;50.972;7.856;2023-12-20T13:43:18;15.20;;;5.87;;
5555;SDS011;2801;50.972;7.856;2023-12-20T13:45:48;18.30;;;6.17;;
5555;SDS011;2801;50.972;7.856;2023-12-20T13:48:15;16.17;;;5.90;;
5555;SDS011;2801;50.972;7.856;2023-12-20T13:50:42;13.87;;;5.93;;
5555;SDS011;2801;50.972;7.856;2023-12-20T13:53:10;8.43;;;5.47;;
5555;SDS011;2801;50.972;7.856;2023-12-20T13:55:37;12.33;;;5.93;;
5555;SDS011;2801;50.972;7.856;2023-12-20T13:58:05;12.67;;;5.60;;
5555;SDS011;2801;50.972;7.856;2023-12-20T14:00:32;15.10;;;5.87;;
5555;SDS011;2801;50.972;7.856;2023-12-20T14:02:59;12.40;;;5.40;;
5555;SDS011;2801;50.972;7.856;2023-12-20T14:05:26;12.10;;;5.37;;
5555;SDS011;2801;50.972;7.856;2023-12-20T14:07:55;19.00;;;6.37;;
5555;SDS011;2801;50.972;7.856;2023-12-20T14:10:24;14.57;;;6.00;;
5555;SDS011;2801;50.972;7.856;2023-12-20T14:12:54;13.40;;;6.20;;
5555;SDS011;2801;50.972;7.856;2023-12-20T14:15:22;13.70;;;6.10;;
5555;SDS011;2801;50.972;7.856;2023-12-20T14:17:52;17.90;;;6.37;;
5555;SDS011;2801;50.972;7.856;2023-12-20T14:20:19;18.53;;;6.23;;
5555;SDS011;2801;50.972;7.856;2023-12-20T14:22:47;14.67;;;6.00;;
5555;SDS011;2801;50.972;7.856;2023-12-20T14:25:14;13.10;;;5.60;;
5555;SDS011;2801;50.972;7.856;2023-12-20T14:27:41;15.37;;;5.50;;
5555;SDS011;2801;50.972;7.856;2023-12-20T14:30:12;12.23;;;5.80;;
5555;SDS011;2801;50.972;7.856;2023-12-20T14:32:41;12.73;;;5.93;;
5555;SDS011;2801;50.972;7.856;2023-12-20T14:35:10;10.97;;;6.10;;
5555;SDS011;2801;50.972;7.856;2023-12-20T14:37:37;10.20;;;5.87;;
5555;SDS011;2801;50.972;7.856;2023-12-20T14:40:07;11.53;;;6.63;;
5555;SDS011;2801;50.972;7.856;2023-12-20T14:42:42;13.23;;;5.17;;
5555;SDS011;2801;50.972;7.856;2023-12-20T14:45:10;10.20;;;5.10;;
5555;SDS011;2801;50.972;7.856;2023-12-20T14:47:39;11.77;;;5.80;;
5555;SDS011;2801;50.972;7.856;2023-12-20T14:50:07;13.03;;;5.73;;
5555;SDS011;2801;50.972;7.856;2023-12-20T14:52:34;8.47;;;4.90;;
5555;SDS011;2801;50.972;7.856;2023-12-20T14:55:02;12.43;;;4.97;;
5555;SDS011;2801;50.972;7.856;2023-12-20T14:57:32;14.53;;;5.20;;
5555;SDS011;2801;50.972;7.856;2023-12-20T14:59:59;9.47;;;5.23;;
5555;SDS011;2801;50.972;7.856;2023-12-20T15:02:27;12.53;;;6.00;;
5555;SDS011;2801;50.972;7.856;2023-12-20T15:04:54;15.53;;;6.03;;
5555;SDS011;2801;50.972;7.856;2023-12-20T15:07:23;11.43;;;5.87;;
5555;SDS011;2801;50.972;7.856;2023-12-20T15:09:50;17.57;;;6.60;;
5555;SDS011;2801;50.972;7.856;2023-12-20T15:12:17;14.77;;;6.27;;
5555;SDS011;2801;50.972;7.856;2023-12-20T15:14:44;17.20;;;6.60;;
5555;SDS011;2801;50.972;7.856;2023-12-20T15:17:11;15.33;;;6.83;;
5555;SDS011;2801;50.972;7.856;2023-12-20T15:19:38;18.57;;;7.87;;